»·PEaware :: AAL405 KBFL-KLAX

AAL405 :: KBFL-KLAX

FLIGHT INFORMATION

Flight Status: Arrived
Operator:
American Airlines
More flights by this operator :: More flights under this callsign
Pilot: Anonymous 39875 (39875)
Aircraft: EMBRAER EMB-170/175
(E170)
More flights by this aircraft type
Origin: KBFL Meadows
United States
Destination: KLAX Los Angeles Intl
United States
More flights between these airports :: More routes between these airports
Route: MEADO5 FIM V107 SMO
File this flight plan on PilotEdge
Remarks:
Altitude:
(Current/Filed)
19,000ft
Speed:
(Current/Filed)
400kts
Departed: 29-Jul-22 07:55 PM
Arrived: 29-Jul-22 08:29 PM
Distance/Time
Traveled:
95nm/0:33
Distance/Time
To Go:
Arrived

Flight Plot

Page will automatically refresh every two minutes.

Flight plan parsing failed; only flown route is shown


Map Options




Map Legend


Flown Route
Filed Route
Departure Airport
Arrival Airport
Navaid (VOR, NDB)
Fix

Horizontal Profiles

Position Reports

Time Latitude Longitude Heading Altitude Ground
Speed
29-Jul-22 19:29 35.436905 -119.054872 44 517ft 0kts
29-Jul-22 19:30 35.436905 -119.054872 44 517ft 0kts
29-Jul-22 19:31 35.436905 -119.054872 44 517ft 0kts
29-Jul-22 19:32 35.436905 -119.054872 44 517ft 0kts
29-Jul-22 19:33 35.436905 -119.054872 44 517ft 0kts
29-Jul-22 19:34 35.436905 -119.054872 44 517ft 0kts
29-Jul-22 19:35 35.436905 -119.054872 44 517ft 0kts
29-Jul-22 19:36 35.436905 -119.054872 44 517ft 0kts
29-Jul-22 19:37 35.436905 -119.054872 44 517ft 0kts
29-Jul-22 19:38 35.436905 -119.054872 44 517ft 0kts
29-Jul-22 19:39 35.436905 -119.054872 44 517ft 0kts
29-Jul-22 19:40 35.436905 -119.054872 44 517ft 0kts
29-Jul-22 19:41 35.436905 -119.054872 44 517ft 0kts
29-Jul-22 19:42 35.436905 -119.054872 44 517ft 0kts
29-Jul-22 19:49 35.436828 -119.055548 135 517ft 0kts
29-Jul-22 19:51 35.434796 -119.055024 139 517ft 13kts
29-Jul-22 19:52 35.431232 -119.050778 134 517ft 16kts
29-Jul-22 19:53 35.427814 -119.046662 136 517ft 22kts
29-Jul-22 19:54 35.425778 -119.044739 201 517ft 8kts
29-Jul-22 19:55 35.439812 -119.062977 316 703ft 210kts
29-Jul-22 19:56 35.482393 -119.120109 312 3745ft 251kts
29-Jul-22 19:57 35.482595 -119.199476 223 6743ft 279kts
29-Jul-22 19:58 35.409682 -119.237165 206 9780ft 291kts
29-Jul-22 19:59 35.325776 -119.235914 166 12821ft 336kts
29-Jul-22 20:00 35.232167 -119.203586 159 15839ft 360kts
29-Jul-22 20:01 35.134300 -119.166210 161 18847ft 377kts
29-Jul-22 20:02 35.031343 -119.128171 161 18955ft 389kts
29-Jul-22 20:03 34.922994 -119.088201 161 19020ft 417kts
29-Jul-22 20:04 34.810650 -119.046886 161 18712ft 424kts
29-Jul-22 20:05 34.710986 -119.010488 160 16962ft 354kts
29-Jul-22 20:06 34.619121 -118.976818 161 15182ft 335kts
29-Jul-22 20:07 34.531912 -118.944973 161 13378ft 321kts
29-Jul-22 20:08 34.447596 -118.914257 161 11578ft 312kts
29-Jul-22 20:09 34.365637 -118.884449 162 9779ft 303kts
29-Jul-22 20:10 34.285972 -118.855213 163 7974ft 293kts
29-Jul-22 20:11 34.209208 -118.826966 162 6180ft 283kts
29-Jul-22 20:12 34.135344 -118.799852 163 6001ft 276kts
29-Jul-22 20:13 34.062897 -118.769529 147 5997ft 277kts
29-Jul-22 20:14 34.031484 -118.688040 95 6004ft 281kts
29-Jul-22 20:15 34.023401 -118.594844 96 6002ft 279kts
29-Jul-22 20:16 34.015528 -118.502063 95 5974ft 280kts
29-Jul-22 20:17 34.023866 -118.410128 81 4209ft 267kts
29-Jul-22 20:17 34.033392 -118.338285 81 4002ft 258kts
29-Jul-22 20:18 34.044803 -118.252817 81 3995ft 258kts
29-Jul-22 20:20 34.057892 -118.153799 84 3978ft 244kts
29-Jul-22 20:21 34.018881 -118.109944 170 3982ft 193kts
29-Jul-22 20:22 33.972556 -118.119718 233 4017ft 185kts
29-Jul-22 20:22 33.956844 -118.167047 256 3759ft 182kts
29-Jul-22 20:23 33.953354 -118.221585 266 2870ft 151kts
29-Jul-22 20:24 33.949206 -118.269814 261 1902ft 140kts
29-Jul-22 20:26 33.943301 -118.323497 263 1130ft 137kts
29-Jul-22 20:26 33.939575 -118.361198 263 540ft 134kts
29-Jul-22 20:27 33.935995 -118.396193 265 137ft 47kts
29-Jul-22 20:28 33.936256 -118.404183 261 136ft 13kts
29-Jul-22 20:29 33.936566 -118.409058 348 136ft 15kts
29-Jul-22 20:30 33.938149 -118.406121 84 136ft 17kts
29-Jul-22 20:31 33.940272 -118.405646 352 136ft 7kts
29-Jul-22 20:32 33.940946 -118.406247 282 136ft 1kts
29-Jul-22 20:33 33.940966 -118.406365 281 136ft 0kts
29-Jul-22 20:34 33.940966 -118.406365 281 136ft 0kts

Navigation Log

Ident Type
Flight plan parsing failed, navigation log unavailable